createdAt,value
2023-01-31T00:01:28.268Z,-60
2023-01-31T00:06:39.537Z,-59
2023-01-31T00:11:41.160Z,-61
2023-01-31T00:16:42.595Z,-60
2023-01-31T00:21:45.210Z,-61
2023-01-31T00:26:48.622Z,-60
2023-01-31T00:31:51.159Z,-60
2023-01-31T00:36:52.687Z,-60
2023-01-31T00:41:54.164Z,-60
2023-01-31T00:46:55.666Z,-60
2023-01-31T00:51:57.684Z,-59
2023-01-31T00:56:59.170Z,-59
2023-01-31T01:02:00.914Z,-59
2023-01-31T01:07:02.411Z,-60
2023-01-31T01:12:04.033Z,-60
2023-01-31T01:17:05.570Z,-60
2023-01-31T01:22:07.111Z,-61
2023-01-31T01:27:09.266Z,-61
2023-01-31T01:32:10.841Z,-60
2023-01-31T01:37:20.046Z,-60
2023-01-31T01:42:24.399Z,-61
2023-01-31T01:47:45.442Z,-61
2023-01-31T01:52:56.137Z,-60
2023-01-31T01:58:08.839Z,-60
2023-01-31T02:03:10.851Z,-61
2023-01-31T02:08:15.857Z,-61
2023-01-31T02:13:19.561Z,-61
2023-01-31T02:18:23.535Z,-60
2023-01-31T02:23:38.388Z,-60
2023-01-31T02:29:17.197Z,-60
2023-01-31T02:34:32.305Z,-61
2023-01-31T02:39:58.537Z,-61
2023-01-31T02:45:14.662Z,-60
2023-01-31T02:50:49.971Z,-61
2023-01-31T02:56:15.164Z,-61
2023-01-31T03:01:24.134Z,-61
2023-01-31T03:06:25.634Z,-61
2023-01-31T03:11:39.356Z,-62
2023-01-31T03:17:13.355Z,-62
2023-01-31T03:22:24.062Z,-60
2023-01-31T03:27:26.323Z,-59
2023-01-31T03:32:37.013Z,-59
2023-01-31T03:37:38.580Z,-60
2023-01-31T03:42:52.240Z,-60
2023-01-31T03:47:54.758Z,-60
2023-01-31T03:53:14.939Z,-60
2023-01-31T03:58:19.781Z,-60
2023-01-31T04:03:32.438Z,-59
2023-01-31T04:08:34.383Z,-60
2023-01-31T04:13:35.973Z,-60
2023-01-31T04:18:38.613Z,-60
2023-01-31T04:23:40.311Z,-59
2023-01-31T04:28:41.914Z,-59
2023-01-31T04:33:43.458Z,-60
2023-01-31T04:38:44.956Z,-60
2023-01-31T04:43:46.472Z,-60
2023-01-31T04:48:47.941Z,-59
2023-01-31T04:53:49.579Z,-59
2023-01-31T04:58:51.014Z,-60
2023-01-31T05:03:52.720Z,-59
2023-01-31T05:08:54.603Z,-60
2023-01-31T05:13:56.277Z,-59
2023-01-31T05:18:57.833Z,-59
2023-01-31T05:23:59.283Z,-59
2023-01-31T05:29:03.365Z,-60
2023-01-31T05:34:05.462Z,-59
2023-01-31T05:39:06.949Z,-59
2023-01-31T05:44:08.563Z,-60
2023-01-31T05:49:10.041Z,-59
2023-01-31T05:54:12.514Z,-60
2023-01-31T05:59:13.990Z,-63
2023-01-31T06:04:15.660Z,-59
2023-01-31T06:09:17.112Z,-61
2023-01-31T06:14:18.616Z,-61
2023-01-31T06:19:25.229Z,-61
2023-01-31T06:24:26.736Z,-59
2023-01-31T06:29:28.202Z,-60
2023-01-31T06:34:29.787Z,-60
2023-01-31T06:39:31.711Z,-61
2023-01-31T06:44:33.612Z,-61
2023-01-31T06:49:35.290Z,-61
2023-01-31T06:54:36.928Z,-61
2023-01-31T06:59:38.439Z,-62
2023-01-31T07:04:39.949Z,-62
2023-01-31T07:09:41.473Z,-60
2023-01-31T07:14:42.980Z,-62
2023-01-31T07:19:44.429Z,-62
2023-01-31T07:24:45.907Z,-61
2023-01-31T07:29:47.443Z,-62
2023-01-31T07:34:49.902Z,-60
2023-01-31T07:39:51.758Z,-59
2023-01-31T07:44:53.214Z,-60
2023-01-31T07:49:54.660Z,-63
2023-01-31T07:54:56.108Z,-66
2023-01-31T07:59:58.116Z,-64
2023-01-31T08:04:59.723Z,-61
2023-01-31T08:10:01.301Z,-62
2023-01-31T08:15:02.752Z,-63
2023-01-31T08:20:04.432Z,-68
2023-01-31T08:25:06.016Z,-68
2023-01-31T08:30:08.413Z,-67
2023-01-31T08:35:09.874Z,-66
2023-01-31T08:40:11.914Z,-66
2023-01-31T08:45:13.376Z,-64
2023-01-31T08:50:25.978Z,-67
2023-01-31T08:55:31.223Z,-66
2023-01-31T09:00:33.680Z,-66
2023-01-31T09:05:35.160Z,-66
2023-01-31T09:10:37.340Z,-64
2023-01-31T09:15:39.116Z,-60
2023-01-31T09:20:40.706Z,-61
2023-01-31T09:25:47.429Z,-61
2023-01-31T09:30:50.755Z,-61
2023-01-31T09:36:00.546Z,-64
2023-01-31T09:41:05.906Z,-61
2023-01-31T09:46:15.122Z,-60
2023-01-31T09:51:17.843Z,-61
2023-01-31T09:56:22.092Z,-62
2023-01-31T10:01:39.079Z,-62
2023-01-31T10:06:56.719Z,-60
2023-01-31T10:12:05.261Z,-61
2023-01-31T10:17:23.624Z,-60
2023-01-31T10:23:00.649Z,-60
2023-01-31T10:28:44.163Z,-60
2023-01-31T10:34:11.079Z,-59
2023-01-31T10:39:23.765Z,-58
2023-01-31T10:44:40.667Z,-60
2023-01-31T10:49:48.695Z,-59
2023-01-31T10:55:01.344Z,-60
2023-01-31T11:00:04.291Z,-60
2023-01-31T11:05:06.651Z,-60
2023-01-31T11:10:23.254Z,-60
2023-01-31T11:15:29.160Z,-59
2023-01-31T11:20:44.224Z,-60
2023-01-31T11:25:52.172Z,-59
2023-01-31T11:30:55.627Z,-58
2023-01-31T11:35:57.171Z,-58
2023-01-31T11:40:58.617Z,-58
2023-01-31T11:46:02.702Z,-61
2023-01-31T11:51:05.314Z,-60
2023-01-31T11:56:21.777Z,-60
2023-01-31T12:01:26.160Z,-60
2023-01-31T12:06:35.921Z,-62
2023-01-31T12:11:37.607Z,-61
2023-01-31T12:16:39.448Z,-60
2023-01-31T12:22:13.971Z,-60
2023-01-31T12:27:27.856Z,-59
2023-01-31T12:32:53.589Z,-61
2023-01-31T12:38:33.074Z,-58
2023-01-31T12:43:47.762Z,-59
2023-01-31T12:49:26.530Z,-61
2023-01-31T12:54:46.953Z,-59
2023-01-31T13:00:16.737Z,-60
2023-01-31T13:05:28.546Z,-60
2023-01-31T13:10:41.498Z,-60
2023-01-31T13:15:55.224Z,-59
2023-01-31T13:21:02.347Z,-60
2023-01-31T13:26:11.355Z,-60
2023-01-31T13:31:23.251Z,-59
2023-01-31T13:36:33.414Z,-59
2023-01-31T13:41:35.118Z,-59
2023-01-31T13:46:44.084Z,-59
2023-01-31T13:51:56.404Z,-59
2023-01-31T13:57:00.395Z,-59
2023-01-31T14:02:05.791Z,-58
2023-01-31T14:07:10.288Z,-59
2023-01-31T14:12:14.567Z,-59
2023-01-31T14:17:28.378Z,-59
2023-01-31T14:22:37.833Z,-61
2023-01-31T14:27:51.809Z,-58
2023-01-31T14:33:29.274Z,-60
2023-01-31T14:39:03.389Z,-60
2023-01-31T14:44:37.316Z,-59
2023-01-31T14:49:53.963Z,-59
2023-01-31T14:55:13.689Z,-60
2023-01-31T15:00:32.528Z,-60
2023-01-31T15:05:37.471Z,-60
2023-01-31T15:11:03.741Z,-60
2023-01-31T15:16:19.248Z,-60
2023-01-31T15:21:32.041Z,-60
2023-01-31T15:26:35.656Z,-61
2023-01-31T15:31:44.438Z,-60
2023-01-31T15:36:59.788Z,-60
2023-01-31T15:42:20.844Z,-60
2023-01-31T15:47:23.570Z,-60
2023-01-31T15:52:25.421Z,-60
2023-01-31T15:57:44.765Z,-60
2023-01-31T16:02:47.510Z,-60
2023-01-31T16:07:49.750Z,-61
2023-01-31T16:12:53.257Z,-60
2023-01-31T16:17:57.622Z,-61
2023-01-31T16:22:59.160Z,-60
2023-01-31T16:28:05.368Z,-57
2023-01-31T16:33:19.054Z,-59
2023-01-31T16:38:27.039Z,-61
2023-01-31T16:43:33.882Z,-59
2023-01-31T16:48:38.471Z,-61
2023-01-31T16:53:41.625Z,-59
2023-01-31T16:58:46.219Z,-60
2023-01-31T17:04:21.439Z,-60
2023-01-31T17:09:23.435Z,-60
2023-01-31T17:14:25.425Z,-59
2023-01-31T17:19:26.989Z,-59
2023-01-31T17:24:28.656Z,-61
2023-01-31T17:29:31.696Z,-60
2023-01-31T17:34:33.811Z,-59
2023-01-31T17:39:35.354Z,-61
2023-01-31T17:44:36.837Z,-62
2023-01-31T17:49:38.290Z,-63
2023-01-31T17:54:39.887Z,-61
2023-01-31T17:59:42.121Z,-60
2023-01-31T18:04:43.622Z,-61
2023-01-31T18:09:46.874Z,-64
2023-01-31T18:14:48.378Z,-63
2023-01-31T18:19:49.832Z,-60
2023-01-31T18:24:51.419Z,-61
2023-01-31T18:29:55.540Z,-61
2023-01-31T18:34:57.033Z,-62
2023-01-31T18:39:59.137Z,-61
2023-01-31T18:45:00.956Z,-61
2023-01-31T18:50:03.165Z,-61
2023-01-31T18:55:05.592Z,-64
2023-01-31T19:00:07.989Z,-61
2023-01-31T19:05:09.978Z,-64
2023-01-31T19:10:11.855Z,-63
2023-01-31T19:15:13.701Z,-63
2023-01-31T19:20:15.277Z,-64
2023-01-31T19:25:16.720Z,-64
2023-01-31T19:30:18.241Z,-63
2023-01-31T19:35:21.430Z,-65
2023-01-31T19:40:23.297Z,-63
2023-01-31T19:45:24.995Z,-64
2023-01-31T19:50:26.887Z,-61
2023-01-31T19:55:31.994Z,-59
2023-01-31T20:00:33.479Z,-59
2023-01-31T20:05:34.994Z,-58
2023-01-31T20:10:37.448Z,-59
2023-01-31T20:15:38.943Z,-60
2023-01-31T20:20:40.402Z,-59
2023-01-31T20:25:41.903Z,-58
2023-01-31T20:30:43.776Z,-58
2023-01-31T20:35:46.348Z,-59
2023-01-31T20:40:52.704Z,-59
2023-01-31T20:46:08.955Z,-58
2023-01-31T20:51:11.230Z,-64
2023-01-31T20:56:14.044Z,-59
2023-01-31T21:01:15.598Z,-61
2023-01-31T21:06:17.425Z,-59
2023-01-31T21:11:18.883Z,-63
2023-01-31T21:16:20.680Z,-61
2023-01-31T21:21:25.313Z,-60
2023-01-31T21:26:27.293Z,-60
2023-01-31T21:31:29.665Z,-61
2023-01-31T21:36:33.277Z,-61
2023-01-31T21:41:53.573Z,-61
2023-01-31T21:46:55.069Z,-62
2023-01-31T21:51:56.707Z,-61
2023-01-31T21:56:58.302Z,-61
2023-01-31T22:01:59.801Z,-60
2023-01-31T22:07:01.637Z,-64
2023-01-31T22:12:03.250Z,-64
2023-01-31T22:17:04.789Z,-61
2023-01-31T22:22:06.545Z,-62
2023-01-31T22:27:08.033Z,-61
2023-01-31T22:32:09.568Z,-63
2023-01-31T22:37:11.191Z,-62
2023-01-31T22:42:12.817Z,-61
2023-01-31T22:47:14.497Z,-61
2023-01-31T22:52:15.983Z,-61
2023-01-31T22:57:17.435Z,-61
2023-01-31T23:02:18.919Z,-60
2023-01-31T23:07:20.366Z,-61
2023-01-31T23:12:21.821Z,-60
2023-01-31T23:17:38.595Z,-60
2023-01-31T23:22:40.696Z,-61
2023-01-31T23:27:43.549Z,-61
2023-01-31T23:32:45.591Z,-61
2023-01-31T23:37:47.081Z,-61
2023-01-31T23:42:48.611Z,-60
2023-01-31T23:47:50.426Z,-61
2023-01-31T23:52:52.417Z,-61
2023-01-31T23:57:53.928Z,-60
